Time;durP1;ratioP1;P1;durP2;ratioP2;P2;SDS_P1;SDS_P2;PMS_P1;PMS_P2;Temp;Humidity;BMP_temperature;BMP_pressure;BME280_temperature;BME280_humidity;BME280_pressure;Samples;Min_cycle;Max_cycle;Signal;HPM_P1;HPM_P2
2022/09/26 00:02:00;;;;;;;3.80;3.50;;;17.40;75.90;17.70;95884.00;;;;5043650;28;20682;-80
2022/09/26 00:04:29;;;;;;;4.03;3.73;;;17.40;75.90;17.70;95883.00;;;;5040473;28;20201;-80
2022/09/26 00:06:57;;;;;;;4.30;3.90;;;17.40;76.00;17.70;95873.00;;;;5040734;28;20300;-80
2022/09/26 00:09:27;;;;;;;3.73;3.43;;;17.40;76.00;17.70;95881.00;;;;5039119;28;20272;-80
2022/09/26 00:11:57;;;;;;;3.67;3.37;;;17.40;76.00;17.70;95873.00;;;;5040236;28;20239;-80
2022/09/26 00:14:30;;;;;;;3.73;3.43;;;17.40;76.00;17.70;95872.00;;;;5041007;28;20189;-80
2022/09/26 00:17:00;;;;;;;3.87;3.50;;;17.40;75.80;17.70;95875.00;;;;5042699;28;20197;-80
2022/09/26 00:19:36;;;;;;;4.00;3.70;;;17.40;75.80;17.70;95870.00;;;;5041701;28;20201;-80
2022/09/26 00:22:03;;;;;;;4.00;3.47;;;17.40;75.80;17.70;95873.00;;;;5041843;28;20224;-81
2022/09/26 00:24:36;;;;;;;3.57;3.30;;;17.30;75.70;17.60;95867.00;;;;5031776;28;20194;-81
2022/09/26 00:27:06;;;;;;;4.10;3.70;;;17.40;75.70;17.60;95869.00;;;;5038596;28;20224;-80
2022/09/26 00:29:41;;;;;;;3.90;3.60;;;17.40;75.80;17.60;95866.00;;;;5038992;28;20253;-80
2022/09/26 00:32:10;;;;;;;3.70;3.40;;;17.30;75.80;17.60;95864.00;;;;5040384;28;20213;-80
2022/09/26 00:34:42;;;;;;;3.90;3.60;;;17.30;75.70;17.60;95870.00;;;;5040270;28;20202;-80
2022/09/26 00:37:09;;;;;;;3.80;3.50;;;17.30;75.60;17.60;95868.00;;;;5040683;28;20197;-80
2022/09/26 00:39:36;;;;;;;3.80;3.50;;;17.30;75.60;17.60;95874.00;;;;5039840;28;20570;-80
2022/09/26 00:42:11;;;;;;;4.10;3.40;;;17.30;75.60;17.50;95858.00;;;;5039401;28;20248;-80
2022/09/26 00:44:55;;;;;;;4.00;3.70;;;17.30;75.70;17.50;95861.00;;;;5038797;28;20195;-81
2022/09/26 00:47:49;;;;;;;3.77;3.50;;;17.30;75.70;17.50;95850.00;;;;5038974;28;20189;-80
2022/09/26 00:50:24;;;;;;;4.00;3.70;;;17.30;75.80;17.50;95854.00;;;;5028297;28;20205;-80
2022/09/26 00:52:57;;;;;;;4.00;3.70;;;17.30;75.80;17.50;95848.00;;;;5019976;28;20674;-80
2022/09/26 00:55:31;;;;;;;4.00;3.70;;;17.20;75.70;17.50;95852.00;;;;5035147;28;20212;-80
2022/09/26 00:58:04;;;;;;;4.07;3.77;;;17.20;75.80;17.50;95853.00;;;;5020033;28;20189;-80
2022/09/26 01:00:36;;;;;;;3.80;3.50;;;17.20;75.80;17.50;95845.00;;;;5030661;28;20602;-80
2022/09/26 01:03:03;;;;;;;3.97;3.63;;;17.20;75.80;17.50;95835.00;;;;5039061;28;20216;-81
2022/09/26 01:05:32;;;;;;;4.80;3.80;;;17.20;75.80;17.50;95831.00;;;;5028292;28;20290;-80
2022/09/26 01:08:04;;;;;;;4.37;4.07;;;17.20;75.80;17.50;95833.00;;;;5039367;28;20641;-80
2022/09/26 01:10:39;;;;;;;4.13;3.83;;;17.20;75.80;17.50;95829.00;;;;5034062;28;20237;-81
2022/09/26 01:13:10;;;;;;;3.67;3.37;;;17.20;75.80;17.50;95834.00;;;;5032550;28;20284;-80
2022/09/26 01:15:46;;;;;;;4.27;3.97;;;17.20;75.80;17.50;95832.00;;;;5039177;28;20212;-80
2022/09/26 01:18:16;;;;;;;4.27;3.97;;;17.20;76.60;17.50;95830.00;;;;5038767;28;20220;-80
2022/09/26 01:20:56;;;;;;;4.20;3.90;;;17.20;75.80;17.50;95826.00;;;;5038774;28;20224;-80
2022/09/26 01:24:03;;;;;;;4.00;3.70;;;17.20;75.80;17.40;95826.00;;;;5037974;28;20216;-80
2022/09/26 01:27:36;;;;;;;4.37;4.07;;;17.20;75.80;17.40;95820.00;;;;5036645;28;20185;-80
2022/09/26 01:30:14;;;;;;;3.97;3.67;;;17.20;75.60;17.40;95825.00;;;;5037666;28;20252;-80
2022/09/26 01:33:46;;;;;;;6.10;4.10;;;17.20;76.40;17.30;95817.00;;;;5030997;28;20217;-81
2022/09/26 01:36:45;;;;;;;4.30;3.90;;;17.10;75.50;17.30;95813.00;;;;5025541;28;20189;-80
2022/09/26 01:39:52;;;;;;;4.40;4.03;;;17.10;75.50;17.30;95811.00;;;;5039505;28;20611;-80
2022/09/26 01:42:30;;;;;;;4.67;4.27;;;17.10;75.70;17.30;95820.00;;;;5039438;28;20224;-80
2022/09/26 01:45:17;;;;;;;4.27;3.90;;;17.10;75.60;17.30;95814.00;;;;5031634;28;20197;-81
2022/09/26 01:48:02;;;;;;;4.40;4.00;;;17.00;75.70;17.30;95816.00;;;;5038072;28;20202;-81
2022/09/26 01:50:43;;;;;;;4.50;4.10;;;17.00;75.80;17.30;95818.00;;;;5035580;28;20231;-80
2022/09/26 01:53:29;;;;;;;4.63;4.23;;;17.00;75.80;17.30;95822.00;;;;5039229;28;20276;-80
2022/09/26 01:56:08;;;;;;;4.67;4.27;;;17.00;75.90;17.30;95816.00;;;;5019181;28;20260;-80
2022/09/26 01:58:48;;;;;;;4.30;3.90;;;17.00;75.90;17.30;95815.00;;;;5018115;28;20232;-80
2022/09/26 02:01:20;;;;;;;4.20;3.90;;;17.00;76.00;17.30;95817.00;;;;5029475;28;20221;-80
2022/09/26 02:03:55;;;;;;;3.90;3.60;;;17.00;76.00;17.30;95817.00;;;;5040160;28;20236;-80
2022/09/26 02:06:30;;;;;;;4.07;3.70;;;17.00;76.10;17.30;95817.00;;;;5020535;28;20189;-80
2022/09/26 02:09:07;;;;;;;4.60;4.20;;;17.00;76.10;17.30;95810.00;;;;5016784;28;20689;-80
2022/09/26 02:11:40;;;;;;;4.80;4.40;;;17.00;76.20;17.30;95815.00;;;;5025332;28;20309;-80
2022/09/26 02:14:13;;;;;;;3.97;3.67;;;17.00;76.30;17.40;95810.00;;;;5033056;28;20190;-80
2022/09/26 02:16:50;;;;;;;4.27;3.97;;;17.00;76.40;17.40;95806.00;;;;5040425;28;20188;-80
2022/09/26 02:19:26;;;;;;;4.40;4.10;;;17.00;76.40;17.40;95811.00;;;;5038268;28;20185;-80
2022/09/26 02:21:57;;;;;;;4.83;4.20;;;17.00;76.30;17.40;95806.00;;;;5040491;28;20240;-80
2022/09/26 02:24:25;;;;;;;4.63;4.23;;;17.10;76.30;17.40;95805.00;;;;5038668;28;20244;-81
2022/09/26 02:26:53;;;;;;;4.60;4.20;;;17.00;76.20;17.40;95796.00;;;;5031694;28;20218;-80
2022/09/26 02:29:21;;;;;;;4.87;4.47;;;17.10;76.20;17.30;95791.00;;;;5027721;28;20316;-81
2022/09/26 02:31:57;;;;;;;4.93;4.40;;;17.10;76.20;17.30;95786.00;;;;5038601;28;20304;-80
2022/09/26 02:34:25;;;;;;;4.53;4.23;;;17.10;76.10;17.30;95786.00;;;;5039223;28;20207;-81
2022/09/26 02:36:56;;;;;;;4.67;4.27;;;17.20;76.20;17.30;95789.00;;;;5039474;28;20228;-80
2022/09/26 02:39:23;;;;;;;4.80;4.40;;;17.10;76.20;17.40;95793.00;;;;5039662;28;20276;-80
2022/09/26 02:42:02;;;;;;;4.43;4.07;;;17.10;76.20;17.40;95790.00;;;;5039801;28;20221;-81
2022/09/26 02:44:47;;;;;;;5.90;4.17;;;17.10;76.30;17.40;95792.00;;;;5024805;28;20193;-81
2022/09/26 02:47:46;;;;;;;4.30;3.90;;;17.10;76.30;17.40;95795.00;;;;5037624;28;20224;-80
2022/09/26 02:50:50;;;;;;;4.97;4.50;;;17.10;76.40;17.40;95791.00;;;;5033677;28;20256;-81
2022/09/26 02:53:41;;;;;;;4.80;4.40;;;17.10;76.20;17.40;95795.00;;;;5036766;28;20293;-81
2022/09/26 02:56:22;;;;;;;4.47;4.07;;;17.10;76.20;17.40;95786.00;;;;5018171;28;20297;-80
2022/09/26 02:59:00;;;;;;;5.20;4.80;;;17.10;76.10;17.40;95788.00;;;;5020926;28;20201;-80
2022/09/26 03:01:38;;;;;;;4.40;4.07;;;17.10;76.20;17.40;95790.00;;;;5038647;28;20642;-81
2022/09/26 03:04:20;;;;;;;4.93;4.50;;;17.10;76.20;17.40;95790.00;;;;5042066;28;20189;-80
2022/09/26 03:06:53;;;;;;;4.53;4.17;;;17.10;76.30;17.40;95794.00;;;;5039891;28;20201;-81
2022/09/26 03:09:24;;;;;;;4.40;4.00;;;17.10;76.30;17.40;95790.00;;;;5042344;28;20240;-80
2022/09/26 03:11:54;;;;;;;4.97;4.47;;;17.10;76.30;17.40;95791.00;;;;5040907;28;20221;-81
2022/09/26 03:14:21;;;;;;;5.13;4.67;;;17.10;76.40;17.40;95792.00;;;;5039491;28;20716;-80
2022/09/26 03:16:51;;;;;;;4.87;4.37;;;17.10;76.40;17.40;95786.00;;;;5040134;28;20197;-81
2022/09/26 03:19:31;;;;;;;4.83;4.43;;;17.10;76.40;17.40;95791.00;;;;5040602;28;20259;-81
2022/09/26 03:22:13;;;;;;;5.37;4.97;;;17.20;76.50;17.50;95792.00;;;;5038936;28;20228;-81
2022/09/26 03:25:01;;;;;;;5.70;5.20;;;17.10;76.40;17.50;95788.00;;;;5038691;28;20197;-81
2022/09/26 03:27:44;;;;;;;5.03;4.63;;;17.20;76.50;17.50;95788.00;;;;5037721;28;20658;-81
2022/09/26 03:30:22;;;;;;;5.53;5.03;;;17.20;76.40;17.50;95792.00;;;;5034125;28;20307;-81
2022/09/26 03:32:57;;;;;;;6.30;4.53;;;17.20;76.40;17.50;95793.00;;;;5036594;28;20193;-81
2022/09/26 03:35:26;;;;;;;5.00;4.60;;;17.20;76.40;17.50;95788.00;;;;5038803;28;20276;-81
2022/09/26 03:37:53;;;;;;;5.50;5.10;;;17.20;76.40;17.50;95785.00;;;;5037518;28;20455;-80
2022/09/26 03:40:26;;;;;;;5.47;4.97;;;17.20;76.40;17.50;95783.00;;;;5042054;28;20201;-80
2022/09/26 03:42:53;;;;;;;5.57;5.07;;;17.20;76.40;17.50;95778.00;;;;5041582;28;20223;-80
2022/09/26 03:45:20;;;;;;;5.30;4.90;;;17.20;76.40;17.50;95778.00;;;;5029583;28;20205;-80
2022/09/26 03:48:07;;;;;;;5.83;5.33;;;17.20;76.40;17.50;95775.00;;;;5022277;28;20296;-81
2022/09/26 03:50:36;;;;;;;6.00;5.50;;;17.20;76.50;17.50;95771.00;;;;5024252;28;20232;-80
2022/09/26 03:53:05;;;;;;;5.83;5.33;;;17.20;76.40;17.50;95766.00;;;;5040975;28;20197;-81
2022/09/26 03:55:32;;;;;;;5.80;5.30;;;17.20;76.40;17.50;95775.00;;;;5040620;28;20201;-81
2022/09/26 03:58:01;;;;;;;6.07;5.47;;;17.20;76.40;17.50;95768.00;;;;5040024;28;20259;-81
2022/09/26 04:00:29;;;;;;;5.57;5.07;;;17.20;76.50;17.50;95764.00;;;;5037490;28;20241;-81
2022/09/26 04:02:56;;;;;;;5.87;5.37;;;17.20;76.50;17.60;95763.00;;;;5039565;28;20247;-81
2022/09/26 04:05:24;;;;;;;6.00;5.50;;;17.20;77.10;17.50;95766.00;;;;5039453;28;20201;-81
2022/09/26 04:07:52;;;;;;;5.90;5.30;;;17.20;76.30;17.60;95765.00;;;;5039608;28;20692;-81
2022/09/26 04:10:19;;;;;;;5.73;5.23;;;17.20;76.30;17.60;95756.00;;;;5039201;28;20225;-81
2022/09/26 04:12:46;;;;;;;6.13;5.53;;;17.20;77.00;17.60;95752.00;;;;5039883;28;20710;-81
2022/09/26 04:15:13;;;;;;;5.80;5.30;;;17.20;76.10;17.60;95756.00;;;;5039446;28;20197;-81
2022/09/26 04:17:40;;;;;;;6.67;5.70;;;17.20;76.10;17.60;95747.00;;;;5040628;28;20237;-81
2022/09/26 04:20:11;;;;;;;5.77;5.27;;;17.20;76.80;17.50;95743.00;;;;5040356;28;20221;-81
2022/09/26 04:22:45;;;;;;;6.10;5.50;;;17.20;76.00;17.50;95740.00;;;;5038505;28;20239;-82
2022/09/26 04:25:14;;;;;;;6.47;5.87;;;17.20;76.00;17.50;95744.00;;;;5033874;28;20197;-82
2022/09/26 04:27:41;;;;;;;6.53;5.93;;;17.20;76.00;17.50;95744.00;;;;5038465;28;20224;-82
2022/09/26 04:30:10;;;;;;;6.43;5.83;;;17.20;76.00;17.50;95744.00;;;;5066515;22;20216;-86
2022/09/26 04:32:37;;;;;;;6.70;6.03;;;17.20;75.90;17.50;95740.00;;;;5074544;28;20192;-86
2022/09/26 04:35:06;;;;;;;6.27;5.70;;;17.20;76.00;17.50;95740.00;;;;5056326;28;20315;-86
2022/09/26 04:37:35;;;;;;;6.30;5.73;;;17.20;76.00;17.40;95741.00;;;;5054689;28;20267;-86
2022/09/26 04:40:03;;;;;;;6.30;5.77;;;17.20;75.90;17.40;95738.00;;;;5054495;28;20208;-87
2022/09/26 04:42:35;;;;;;;6.07;5.57;;;17.20;75.90;17.50;95739.00;;;;5054176;28;20193;-87
2022/09/26 04:45:03;;;;;;;6.37;5.83;;;17.20;75.80;17.40;95741.00;;;;5039013;28;20591;-87
2022/09/26 04:47:30;;;;;;;6.10;5.53;;;17.10;75.70;17.50;95739.00;;;;5054373;28;20211;-87
2022/09/26 04:49:57;;;;;;;6.03;5.37;;;17.10;75.80;17.40;95730.00;;;;5053909;28;20303;-86
2022/09/26 04:52:25;;;;;;;5.97;5.47;;;17.10;75.70;17.40;95736.00;;;;5054159;28;20674;-86
2022/09/26 04:54:52;;;;;;;6.20;5.60;;;17.10;75.70;17.40;95731.00;;;;5054215;28;20225;-87
2022/09/26 04:57:19;;;;;;;6.00;5.50;;;17.10;75.70;17.40;95737.00;;;;5054238;28;20288;-87
2022/09/26 04:59:48;;;;;;;6.20;5.60;;;17.10;75.70;17.40;95738.00;;;;5053990;28;20575;-87
2022/09/26 05:02:15;;;;;;;6.27;5.73;;;17.10;75.70;17.40;95731.00;;;;5054213;28;20296;-87
2022/09/26 05:04:42;;;;;;;6.60;5.90;;;17.10;75.60;17.40;95734.00;;;;5053354;28;20327;-86
2022/09/26 05:07:10;;;;;;;6.40;5.80;;;17.00;75.60;17.40;95730.00;;;;5054440;28;20204;-88
2022/09/26 05:09:37;;;;;;;5.87;5.37;;;17.00;75.70;17.40;95732.00;;;;5053551;28;20197;-87
2022/09/26 05:12:04;;;;;;;4.90;4.50;;;17.00;75.80;17.40;95730.00;;;;5053635;28;20732;-87
2022/09/26 05:14:34;;;;;;;5.53;5.03;;;17.00;75.80;17.40;95729.00;;;;5053376;28;20307;-88
2022/09/26 05:17:03;;;;;;;5.53;5.03;;;17.00;75.80;17.40;95730.00;;;;5033340;28;20261;-87
2022/09/26 05:19:31;;;;;;;5.47;5.07;;;17.00;75.80;17.40;95738.00;;;;5033816;28;20205;-88
2022/09/26 05:21:58;;;;;;;5.33;4.93;;;17.00;75.80;17.40;95731.00;;;;5033386;28;20198;-88
2022/09/26 05:27:10;;;;;;;5.07;4.50;;;17.00;75.80;17.40;95742.00;;;;5033958;28;20200;-87
2022/09/26 05:29:37;;;;;;;5.90;5.13;;;17.00;75.80;17.40;95735.00;;;;5043038;28;20228;-87
2022/09/26 05:32:06;;;;;;;4.87;4.47;;;17.00;76.50;17.40;95739.00;;;;5047052;28;20291;-87
2022/09/26 05:34:33;;;;;;;5.23;4.83;;;17.00;75.80;17.40;95745.00;;;;5053116;28;20224;-87
2022/09/26 05:37:06;;;;;;;5.10;4.60;;;17.00;76.40;17.40;95732.00;;;;5053162;28;20224;-87
2022/09/26 05:42:17;;;;;;;4.70;4.30;;;17.00;75.60;17.40;95736.00;;;;5053197;28;20270;-87
2022/09/26 05:44:44;;;;;;;5.43;4.93;;;17.00;75.70;17.30;95728.00;;;;5052447;28;20303;-88
2022/09/26 05:47:13;;;;;;;4.60;4.20;;;17.00;75.80;17.40;95730.00;;;;5052679;28;20251;-88
2022/09/26 05:49:40;;;;;;;5.70;5.17;;;17.00;75.80;17.30;95737.00;;;;5051002;28;20208;-87
2022/09/26 05:52:07;;;;;;;5.20;4.77;;;17.00;75.90;17.40;95729.00;;;;5033314;28;20203;-87
2022/09/26 05:54:34;;;;;;;5.70;5.10;;;17.00;75.90;17.40;95735.00;;;;5032819;28;20217;-88
2022/09/26 05:57:02;;;;;;;5.43;5.03;;;17.00;75.90;17.40;95737.00;;;;5032333;28;20267;-88
2022/09/26 05:59:29;;;;;;;5.00;4.53;;;17.00;76.60;17.40;95744.00;;;;5043112;28;20211;-88
2022/09/26 06:01:57;;;;;;;4.93;4.53;;;17.00;76.60;17.40;95746.00;;;;5051868;28;20279;-87
2022/09/26 06:04:28;;;;;;;4.77;4.37;;;17.00;76.00;17.40;95749.00;;;;5052145;28;20220;-87
2022/09/26 06:06:55;;;;;;;4.83;4.43;;;17.00;76.00;17.40;95749.00;;;;5032663;28;20259;-87
2022/09/26 06:09:22;;;;;;;4.70;4.30;;;17.00;76.10;17.50;95750.00;;;;5032669;28;20312;-87
2022/09/26 06:11:49;;;;;;;4.90;4.50;;;17.10;76.10;17.50;95743.00;;;;5045373;28;20263;-87
2022/09/26 06:14:16;;;;;;;4.77;4.30;;;17.10;76.00;17.50;95746.00;;;;5051810;28;20679;-87
2022/09/26 06:16:43;;;;;;;4.50;4.10;;;17.10;75.90;17.50;95747.00;;;;5052725;28;20283;-87
2022/09/26 06:19:10;;;;;;;4.13;3.77;;;17.10;75.70;17.50;95747.00;;;;5051580;28;20279;-88
2022/09/26 06:21:42;;;;;;;3.43;3.23;;;17.10;75.60;17.50;95744.00;;;;5043855;28;20268;-87
2022/09/26 06:24:10;;;;;;;4.13;3.37;;;17.10;75.70;17.40;95748.00;;;;5052303;28;20307;-88
2022/09/26 06:26:38;;;;;;;2.77;2.57;;;17.10;75.50;17.40;95748.00;;;;5052244;28;20232;-87
2022/09/26 06:29:06;;;;;;;2.80;2.60;;;17.10;75.20;17.40;95751.00;;;;5052230;28;20254;-87
2022/09/26 06:31:33;;;;;;;2.73;2.53;;;17.10;75.00;17.40;95745.00;;;;5052112;28;20220;-86
2022/09/26 06:34:01;;;;;;;2.43;2.23;;;17.10;74.90;17.40;95747.00;;;;5051867;28;20789;-87
2022/09/26 06:36:28;;;;;;;2.47;2.27;;;17.10;74.80;17.40;95750.00;;;;5042067;28;20211;-87
2022/09/26 06:38:56;;;;;;;2.37;2.17;;;17.00;74.80;17.40;95755.00;;;;5044859;28;20197;-87
2022/09/26 06:41:25;;;;;;;2.70;2.50;;;17.10;74.80;17.40;95753.00;;;;5051537;28;20737;-88
2022/09/26 06:43:52;;;;;;;2.43;2.23;;;17.00;74.60;17.40;95744.00;;;;5051857;28;20283;-87
2022/09/26 06:46:20;;;;;;;2.43;2.20;;;17.00;74.60;17.40;95741.00;;;;5031668;28;20201;-87
2022/09/26 06:48:47;;;;;;;2.07;1.97;;;17.00;74.70;17.40;95743.00;;;;5032477;28;20213;-87
2022/09/26 06:51:14;;;;;;;1.90;1.80;;;17.10;74.60;17.50;95739.00;;;;5031791;28;20229;-87
2022/09/26 06:53:43;;;;;;;2.03;1.80;;;17.10;74.40;17.50;95741.00;;;;5032277;28;20221;-87
2022/09/26 06:56:12;;;;;;;2.33;1.90;;;17.10;74.30;17.50;95737.00;;;;5031621;28;20208;-87
2022/09/26 06:58:39;;;;;;;1.63;1.53;;;17.10;74.00;17.50;95729.00;;;;5032188;28;20280;-87
2022/09/26 07:01:07;;;;;;;1.60;1.43;;;17.10;73.90;17.40;95722.00;;;;5040246;28;20222;-87
2022/09/26 07:03:34;;;;;;;2.27;1.70;;;17.10;73.80;17.40;95725.00;;;;5052035;28;20303;-87
2022/09/26 07:06:02;;;;;;;1.53;1.43;;;17.10;73.90;17.40;95727.00;;;;5051479;28;20740;-87
2022/09/26 07:08:29;;;;;;;2.50;1.77;;;17.10;73.90;17.40;95724.00;;;;5052073;28;20387;-87
2022/09/26 07:11:00;;;;;;;1.90;1.80;;;17.10;73.90;17.50;95722.00;;;;5048389;28;20705;-87
2022/09/26 07:13:29;;;;;;;1.50;1.40;;;17.10;73.70;17.50;95726.00;;;;5051928;28;20231;-87
2022/09/26 07:15:57;;;;;;;1.67;1.57;;;17.10;73.60;17.50;95721.00;;;;5051290;28;20193;-87
2022/09/26 07:18:27;;;;;;;2.23;1.80;;;17.10;73.70;17.60;95726.00;;;;5051872;28;20233;-87
2022/09/26 07:20:54;;;;;;;1.30;1.20;;;17.20;73.80;17.60;95719.00;;;;5051745;28;20672;-87
2022/09/26 07:23:21;;;;;;;1.63;1.23;;;17.20;73.60;17.70;95723.00;;;;5051900;28;20240;-88
2022/09/26 07:25:49;;;;;;;5.73;1.63;;;17.20;73.50;17.70;95732.00;;;;5051302;28;20229;-87
2022/09/26 07:28:16;;;;;;;1.70;1.33;;;17.30;73.80;17.80;95729.00;;;;5051331;28;20207;-88
2022/09/26 07:30:44;;;;;;;2.07;1.30;;;17.30;73.40;17.80;95728.00;;;;5051501;28;20311;-87
2022/09/26 07:33:11;;;;;;;1.77;1.67;;;17.30;73.10;17.80;95730.00;;;;5052207;28;20201;-87
2022/09/26 07:35:43;;;;;;;1.77;1.33;;;17.40;73.00;17.90;95725.00;;;;5051229;28;20220;-88
2022/09/26 07:38:11;;;;;;;1.63;1.13;;;17.40;72.50;17.90;95725.00;;;;5051857;28;20255;-87
2022/09/26 07:40:39;;;;;;;1.67;1.40;;;17.40;72.30;17.90;95734.00;;;;5051538;28;20197;-87
2022/09/26 07:43:06;;;;;;;1.80;1.17;;;17.50;72.60;18.00;95727.00;;;;5051288;28;20207;-87
2022/09/26 07:51:06;;;;;;;1.97;1.73;;;17.60;72.50;18.10;95721.00;;;;5055097;28;20327;-87
2022/09/26 07:53:33;;;;;;;1.50;1.40;;;17.60;72.40;18.20;95733.00;;;;5053959;28;20593;-87
2022/09/26 07:56:09;;;;;;;3.77;1.80;;;17.60;72.40;18.20;95732.00;;;;5041716;28;20225;-87
2022/09/26 07:58:40;;;;;;;2.33;1.47;;;17.70;72.30;18.30;95730.00;;;;5047427;28;20189;-87
2022/09/26 08:01:11;;;;;;;1.73;1.50;;;17.70;71.90;18.30;95735.00;;;;5056535;28;20563;-87
2022/09/26 08:03:40;;;;;;;1.93;1.50;;;17.70;71.70;18.30;95734.00;;;;5055931;28;20236;-87
2022/09/26 08:06:08;;;;;;;1.60;1.50;;;17.80;71.70;18.40;95734.00;;;;5054747;28;20227;-87
2022/09/26 08:08:36;;;;;;;2.20;1.50;;;17.80;71.60;18.40;95741.00;;;;5054885;28;20235;-87
2022/09/26 08:11:04;;;;;;;1.70;1.60;;;17.80;71.10;18.40;95743.00;;;;5054715;28;20232;-87
2022/09/26 08:13:32;;;;;;;1.83;1.73;;;17.90;71.10;18.40;95742.00;;;;5054800;28;20251;-88
2022/09/26 08:16:04;;;;;;;1.70;1.60;;;17.90;70.90;18.40;95747.00;;;;5054515;28;20806;-87
2022/09/26 08:18:33;;;;;;;1.47;1.37;;;17.90;70.40;18.40;95748.00;;;;5054989;28;20715;-87
2022/09/26 08:21:04;;;;;;;1.90;1.53;;;17.90;70.40;18.30;95749.00;;;;5057059;28;20287;-85
2022/09/26 08:23:31;;;;;;;2.00;1.87;;;17.90;70.30;18.40;95741.00;;;;5059834;28;20224;-85
2022/09/26 08:25:59;;;;;;;2.37;1.63;;;17.90;71.40;18.40;95740.00;;;;5049447;28;20225;-85
2022/09/26 08:28:27;;;;;;;2.10;1.70;;;17.90;70.60;18.40;95747.00;;;;5045258;28;20229;-85
2022/09/26 08:30:57;;;;;;;1.97;1.73;;;17.90;70.70;18.50;95738.00;;;;5058507;28;20687;-86
2022/09/26 08:33:24;;;;;;;3.10;2.00;;;18.00;70.80;18.60;95743.00;;;;5050326;28;20279;-85
2022/09/26 08:35:51;;;;;;;2.53;2.33;;;18.00;71.10;18.70;95732.00;;;;5042726;28;20208;-85
2022/09/26 08:38:19;;;;;;;2.50;2.30;;;18.10;71.30;18.80;95733.00;;;;5044186;28;20621;-85
2022/09/26 08:41:00;;;;;;;1.97;1.87;;;18.20;72.30;19.00;95728.00;;;;5043493;28;20232;-86
2022/09/26 08:43:50;;;;;;;2.03;1.77;;;18.30;71.30;19.10;95737.00;;;;5041337;28;20241;-85
2022/09/26 08:46:43;;;;;;;3.10;1.93;;;18.40;70.50;19.10;95727.00;;;;5060697;28;20269;-85
2022/09/26 08:49:43;;;;;;;1.63;1.53;;;18.50;70.60;19.20;95725.00;;;;5041962;28;20554;-86
2022/09/26 08:52:28;;;;;;;1.63;1.53;;;18.60;69.60;19.30;95721.00;;;;5043197;28;20729;-86
2022/09/26 08:55:01;;;;;;;1.93;1.70;;;18.60;68.60;19.30;95727.00;;;;5040997;28;20304;-85
2022/09/26 08:57:39;;;;;;;2.33;1.70;;;18.70;68.60;19.30;95723.00;;;;5040033;28;20201;-84
2022/09/26 09:00:19;;;;;;;1.70;1.60;;;18.70;68.60;19.40;95724.00;;;;5041657;28;20221;-86
2022/09/26 09:03:02;;;;;;;2.33;1.80;;;18.80;68.10;19.40;95716.00;;;;5040428;28;20201;-85
2022/09/26 09:05:33;;;;;;;1.80;1.70;;;18.80;68.10;19.40;95714.00;;;;5057126;28;20280;-85
2022/09/26 09:08:06;;;;;;;2.20;2.10;;;18.80;69.00;19.50;95705.00;;;;5058679;28;20229;-86
2022/09/26 09:10:46;;;;;;;2.73;2.40;;;18.80;68.70;19.60;95698.00;;;;5059690;28;20669;-86
2022/09/26 09:13:41;;;;;;;2.47;2.27;;;18.90;69.10;19.80;95701.00;;;;5059520;28;20247;-86
2022/09/26 09:16:31;;;;;;;3.23;2.30;;;19.00;69.20;19.90;95694.00;;;;5055500;28;20216;-87
2022/09/26 09:19:14;;;;;;;2.20;2.00;;;19.10;69.40;20.10;95687.00;;;;5061654;28;20221;-87
2022/09/26 09:22:03;;;;;;;2.40;2.20;;;19.20;69.30;20.30;95685.00;;;;5059734;28;20213;-85
2022/09/26 09:24:52;;;;;;;2.10;1.90;;;19.30;68.70;20.30;95679.00;;;;5051494;28;20251;-86
2022/09/26 09:27:41;;;;;;;1.90;1.80;;;19.50;67.90;20.40;95681.00;;;;5057321;28;20228;-85
2022/09/26 09:30:18;;;;;;;1.97;1.80;;;19.50;68.00;20.50;95676.00;;;;5049046;28;20239;-87
2022/09/26 09:32:54;;;;;;;3.10;1.97;;;19.60;68.20;20.60;95666.00;;;;5035834;28;20299;-87
2022/09/26 09:35:34;;;;;;;1.97;1.80;;;19.70;67.90;20.70;95671.00;;;;5053364;28;20279;-87
2022/09/26 09:38:03;;;;;;;1.70;1.60;;;19.80;66.70;20.80;95682.00;;;;5053239;28;20284;-86
2022/09/26 09:40:38;;;;;;;2.37;1.50;;;19.90;66.90;21.00;95677.00;;;;5053824;28;20200;-87
2022/09/26 09:43:14;;;;;;;1.60;1.50;;;20.10;66.90;21.10;95680.00;;;;5045577;28;20204;-87
2022/09/26 09:45:48;;;;;;;1.80;1.60;;;20.20;66.70;21.10;95686.00;;;;5044663;28;20220;-87
2022/09/26 09:48:15;;;;;;;1.40;1.30;;;20.30;66.10;21.10;95678.00;;;;5061625;28;20214;-87
2022/09/26 09:51:01;;;;;;;1.23;1.23;;;20.30;65.30;21.00;95685.00;;;;5063449;28;20259;-86
2022/09/26 09:53:49;;;;;;;1.30;1.20;;;20.40;64.40;21.00;95676.00;;;;5053785;28;20311;-87
2022/09/26 09:56:32;;;;;;;2.27;1.50;;;20.40;63.90;20.90;95684.00;;;;5072982;28;20220;-87
2022/09/26 09:59:31;;;;;;;1.43;1.33;;;20.40;63.50;20.80;95684.00;;;;5039484;28;20284;-87
2022/09/26 10:02:15;;;;;;;1.40;1.30;;;20.40;63.20;20.80;95683.00;;;;5039563;28;20232;-87
2022/09/26 10:04:47;;;;;;;1.50;1.40;;;20.30;63.20;20.70;95681.00;;;;5062208;28;20228;-86
2022/09/26 10:07:15;;;;;;;2.40;1.20;;;20.30;63.50;20.60;95678.00;;;;5051455;28;20225;-86
2022/09/26 10:09:43;;;;;;;1.17;1.07;;;20.20;63.20;20.60;95670.00;;;;5050447;28;20203;-87
2022/09/26 10:12:17;;;;;;;1.00;0.90;;;20.20;63.20;20.50;95668.00;;;;5054903;28;20705;-87
2022/09/26 10:14:54;;;;;;;1.60;1.23;;;20.10;63.00;20.50;95664.00;;;;5052500;28;20231;-87
2022/09/26 10:17:23;;;;;;;1.13;1.10;;;20.10;62.90;20.40;95668.00;;;;5057848;28;20219;-87
2022/09/26 10:19:51;;;;;;;1.20;1.10;;;20.00;63.00;20.40;95664.00;;;;5048861;28;20283;-87
2022/09/26 10:22:28;;;;;;;1.10;1.00;;;20.00;62.90;20.30;95659.00;;;;5050675;28;20201;-87
2022/09/26 10:25:04;;;;;;;1.10;1.00;;;20.00;62.50;20.30;95654.00;;;;5042458;28;20290;-88
2022/09/26 10:27:38;;;;;;;1.30;1.20;;;19.90;62.40;20.20;95655.00;;;;5052825;28;20192;-88
2022/09/26 10:30:25;;;;;;;1.13;1.03;;;19.80;62.90;20.20;95656.00;;;;5052073;28;20209;-87
2022/09/26 10:32:57;;;;;;;2.40;1.20;;;19.80;62.10;20.10;95650.00;;;;5032413;28;20216;-87
2022/09/26 10:35:28;;;;;;;1.60;1.10;;;19.70;62.60;20.10;95653.00;;;;5046176;28;20196;-87
2022/09/26 10:38:01;;;;;;;1.50;1.20;;;19.70;63.10;20.20;95651.00;;;;5051066;28;20598;-87
2022/09/26 10:40:47;;;;;;;1.70;1.30;;;19.70;62.80;20.20;95647.00;;;;5052663;28;20211;-87
2022/09/26 10:43:33;;;;;;;1.63;1.50;;;19.70;63.00;20.30;95648.00;;;;5051377;28;20227;-87
2022/09/26 10:46:10;;;;;;;1.40;1.30;;;19.80;62.90;20.40;95658.00;;;;5051543;28;20208;-87
2022/09/26 10:48:47;;;;;;;1.27;1.17;;;19.80;63.00;20.40;95641.00;;;;5047442;28;20279;-87
2022/09/26 10:51:23;;;;;;;1.17;1.10;;;19.90;62.90;20.50;95653.00;;;;5042166;28;20193;-87
2022/09/26 10:53:56;;;;;;;1.30;1.20;;;19.90;63.10;20.60;95647.00;;;;5039985;28;20701;-87
2022/09/26 10:56:27;;;;;;;1.60;1.50;;;20.00;63.30;20.60;95654.00;;;;5044337;28;20248;-87
2022/09/26 10:58:59;;;;;;;1.40;1.30;;;20.00;64.10;20.70;95645.00;;;;5038118;28;20205;-87
2022/09/26 11:01:31;;;;;;;0.87;0.87;;;20.10;62.80;20.70;95639.00;;;;5051802;28;20232;-87
2022/09/26 11:04:12;;;;;;;1.23;1.13;;;20.10;62.40;20.70;95643.00;;;;5051650;28;20225;-87
2022/09/26 11:06:43;;;;;;;0.90;0.90;;;20.10;62.20;20.60;95642.00;;;;5051780;28;20626;-87
2022/09/26 11:09:12;;;;;;;1.40;1.20;;;20.10;61.90;20.60;95644.00;;;;5046077;28;20201;-87
2022/09/26 11:11:41;;;;;;;0.80;0.80;;;20.10;61.70;20.60;95637.00;;;;5032282;28;20212;-87
2022/09/26 11:14:09;;;;;;;1.20;0.90;;;20.10;61.70;20.50;95646.00;;;;5033592;28;20221;-86
2022/09/26 11:17:02;;;;;;;0.70;0.70;;;20.10;61.90;20.50;95645.00;;;;5052051;28;20285;-86
2022/09/26 11:19:44;;;;;;;1.00;1.00;;;20.10;60.90;20.40;95632.00;;;;5032640;28;20200;-86
2022/09/26 11:22:22;;;;;;;1.00;0.80;;;20.00;61.00;20.40;95623.00;;;;5052029;28;20235;-86
2022/09/26 11:25:02;;;;;;;0.97;0.90;;;20.00;61.60;20.40;95625.00;;;;5046330;28;20584;-87
2022/09/26 11:27:42;;;;;;;0.83;0.83;;;20.00;61.60;20.40;95627.00;;;;5038713;28;20259;-86
2022/09/26 11:30:13;;;;;;;1.03;0.80;;;19.90;61.90;20.40;95611.00;;;;5035424;28;20671;-87
2022/09/26 11:32:47;;;;;;;1.00;0.90;;;19.90;61.80;20.40;95604.00;;;;5054682;28;20307;-87
2022/09/26 11:35:32;;;;;;;1.00;1.00;;;19.90;61.90;20.40;95602.00;;;;5054811;28;20643;-87